This is the latest recevied weather packets stored in our database for station/object KC3UTO. If no packets are shown the sender has not sent any weather packets the latest 1 day(s).
| Time | Temp. | Humidity | Pressure | Rain* | Wind** | Luminosity | Snow |
|---|---|---|---|---|---|---|---|
| 1778007144 | 27.78° C | 30% | 1007.9 hPa | 0 mm | 0.89 m/s, 213° | 770 W/m² | - |
| 1778006840 | 28.33° C | 29% | 1007.5 hPa | 0 mm | 4.02 m/s, 254° | 760 W/m² | - |
| 1778006538 | 28.33° C | 31% | 1007.9 hPa | 0 mm | 0.89 m/s, 67° | 780 W/m² | - |
| 1778006235 | 28.33° C | 30% | 1008 hPa | 0 mm | 2.68 m/s, 250° | 811 W/m² | - |
| 1778005933 | 27.78° C | 29% | 1007.7 hPa | 0 mm | 1.34 m/s, 324° | 816 W/m² | - |
| 1778005628 | 28.33° C | 29% | 1007.8 hPa | 0 mm | 1.34 m/s, 200° | 830 W/m² | - |
| 1778005326 | 28.33° C | 30% | 1007.9 hPa | 0 mm | 1.79 m/s, 151° | 843 W/m² | - |
| 1778005022 | 28.33° C | 29% | 1007.8 hPa | 0 mm | 3.13 m/s, 243° | 849 W/m² | - |
| 1778004720 | 28.89° C | 30% | 1007.9 hPa | 0 mm | 1.79 m/s, 166° | 856 W/m² | - |
| 1778004415 | 28.33° C | 29% | 1008 hPa | 0 mm | 4.02 m/s, 233° | 866 W/m² | - |
| 1778004113 | 28.33° C | 29% | 1008.1 hPa | 0 mm | 4.92 m/s, 235° | 878 W/m² | - |
| 1778003808 | 28.33° C | 29% | 1008 hPa | 0 mm | 2.24 m/s, 235° | 878 W/m² | - |
| 1778003505 | 28.33° C | 28% | 1008.1 hPa | 0 mm | 0.45 m/s, 229° | 876 W/m² | - |
| 1778003202 | 28.33° C | 31% | 1008.2 hPa | 0 mm | 0.89 m/s, 192° | 901 W/m² | - |
| 1778002898 | 27.78° C | 29% | 1008.3 hPa | 0 mm | 0.89 m/s, 213° | 922 W/m² | - |
| 1778002595 | 27.78° C | 27% | 1008.5 hPa | 0 mm | 3.13 m/s, 269° | 913 W/m² | - |
| 1778002292 | 27.78° C | 31% | 1008.2 hPa | 0 mm | 2.24 m/s, 253° | 910 W/m² | - |
| 1778001989 | 28.33° C | 28% | 1008.4 hPa | 0 mm | 3.58 m/s, 196° | 930 W/m² | - |
| 1778001686 | 28.33° C | 33% | 1008.4 hPa | 0 mm | 1.34 m/s, 53° | 918 W/m² | - |
| 1778001380 | 27.78° C | 31% | 1008.3 hPa | 0 mm | 1.79 m/s, 138° | 908 W/m² | - |
| 1778001078 | 27.78° C | 33% | 1008.4 hPa | 0 mm | 1.34 m/s, 286° | 934 W/m² | - |
| 1778000775 | 27.22° C | 34% | 1008.5 hPa | 0 mm | 1.34 m/s, 228° | 836 W/m² | - |
| 1778000471 | 27.22° C | 33% | 1008.5 hPa | 0 mm | 2.68 m/s, 218° | 934 W/m² | - |
| 1778000166 | 27.22° C | 34% | 1008.6 hPa | 0 mm | 1.79 m/s, 268° | 933 W/m² | - |
| 1777999862 | 27.22° C | 35% | 1008.8 hPa | 0 mm | 1.34 m/s, 259° | 1000 W/m² | - |
* Rain latest hour (hover to see other rain measurements)
** Current wind speed in m/s (hover to see current wind gust speed)